createdAt,value
2023-07-24T00:00:07.986Z,18.50
2023-07-24T00:02:36.246Z,18.40
2023-07-24T00:05:04.884Z,18.40
2023-07-24T00:07:33.270Z,18.30
2023-07-24T00:10:01.609Z,18.30
2023-07-24T00:12:29.898Z,18.20
2023-07-24T00:14:59.577Z,18.20
2023-07-24T00:17:27.967Z,18.20
2023-07-24T00:19:56.280Z,18.20
2023-07-24T00:22:24.655Z,18.20
2023-07-24T00:24:53.021Z,18.20
2023-07-24T00:27:21.401Z,18.20
2023-07-24T00:29:49.736Z,18.30
2023-07-24T00:32:19.536Z,18.30
2023-07-24T00:34:47.897Z,18.30
2023-07-24T00:37:16.186Z,18.30
2023-07-24T00:39:44.676Z,18.30
2023-07-24T00:42:13.029Z,18.30
2023-07-24T00:44:41.345Z,18.30
2023-07-24T00:47:09.747Z,18.30
2023-07-24T00:49:39.555Z,18.30
2023-07-24T00:52:08.870Z,18.20
2023-07-24T00:54:37.396Z,18.20
2023-07-24T00:57:06.789Z,18.30
2023-07-24T00:59:35.592Z,18.30
2023-07-24T01:02:04.196Z,18.30
2023-07-24T01:04:32.749Z,18.30
2023-07-24T01:07:02.698Z,18.20
2023-07-24T01:09:30.970Z,18.20
2023-07-24T01:12:05.016Z,18.40
2023-07-24T01:14:44.150Z,18.20
2023-07-24T01:17:17.509Z,18.20
2023-07-24T01:19:49.896Z,18.20
2023-07-24T01:22:27.164Z,18.10
2023-07-24T01:25:06.477Z,18.10
2023-07-24T01:27:36.551Z,18.10
2023-07-24T01:30:05.245Z,18.10
2023-07-24T01:32:33.628Z,18.20
2023-07-24T01:35:02.092Z,18.20
2023-07-24T01:37:31.609Z,18.20
2023-07-24T01:40:00.491Z,18.20
2023-07-24T01:42:29.921Z,18.20
2023-07-24T01:44:59.569Z,18.20
2023-07-24T01:47:27.986Z,18.20
2023-07-24T01:49:56.340Z,18.20
2023-07-24T01:52:24.753Z,18.20
2023-07-24T01:54:53.028Z,18.20
2023-07-24T01:57:21.410Z,18.20
2023-07-24T01:59:50.278Z,18.20
2023-07-24T02:02:20.402Z,18.20
2023-07-24T02:04:48.811Z,18.20
2023-07-24T02:07:17.262Z,18.10
2023-07-24T02:09:45.644Z,18.10
2023-07-24T02:12:14.009Z,18.10
2023-07-24T02:14:42.238Z,18.10
2023-07-24T02:17:10.507Z,18.10
2023-07-24T02:19:40.164Z,18.20
2023-07-24T02:22:08.502Z,18.20
2023-07-24T02:24:37.473Z,18.30
2023-07-24T02:27:08.000Z,18.30
2023-07-24T02:29:37.055Z,18.40
2023-07-24T02:32:05.908Z,18.40
2023-07-24T02:34:34.346Z,18.40
2023-07-24T02:37:04.167Z,18.40
2023-07-24T02:39:32.514Z,18.40
2023-07-24T02:42:02.816Z,18.40
2023-07-24T02:44:31.056Z,18.40
2023-07-24T02:46:59.359Z,18.40
2023-07-24T02:49:27.723Z,18.30
2023-07-24T02:51:56.046Z,18.30
2023-07-24T02:54:25.700Z,18.30
2023-07-24T02:56:54.152Z,18.30
2023-07-24T02:59:22.428Z,18.30
2023-07-24T03:01:50.643Z,18.30
2023-07-24T03:04:19.226Z,18.40
2023-07-24T03:06:47.589Z,18.60
2023-07-24T03:09:16.278Z,18.60
2023-07-24T03:11:45.860Z,18.80
2023-07-24T03:14:14.226Z,19.10
2023-07-24T03:16:42.480Z,19.40
2023-07-24T03:19:10.760Z,19.60
2023-07-24T03:21:39.287Z,19.70
2023-07-24T03:24:07.870Z,19.80
2023-07-24T03:26:36.332Z,20.00
2023-07-24T03:29:07.409Z,20.10
2023-07-24T03:31:35.741Z,20.20
2023-07-24T03:34:04.125Z,20.40
2023-07-24T03:36:32.536Z,20.40
2023-07-24T03:39:00.944Z,20.40
2023-07-24T03:41:29.615Z,20.40
2023-07-24T03:43:58.106Z,20.40
2023-07-24T03:46:28.336Z,20.40
2023-07-24T03:48:57.177Z,20.30
2023-07-24T03:51:25.712Z,20.30
2023-07-24T03:53:55.167Z,20.20
2023-07-24T03:56:23.569Z,20.20
2023-07-24T03:58:52.196Z,20.20
2023-07-24T04:01:20.567Z,20.30
2023-07-24T04:03:50.315Z,20.30
2023-07-24T04:06:18.799Z,20.30
2023-07-24T04:08:47.133Z,20.30
2023-07-24T04:11:17.283Z,20.30
2023-07-24T04:13:45.618Z,20.30
2023-07-24T04:16:14.001Z,20.30
2023-07-24T04:18:42.324Z,20.30
2023-07-24T04:21:12.042Z,20.30
2023-07-24T04:23:43.941Z,20.40
2023-07-24T04:26:14.041Z,20.40
2023-07-24T04:28:42.750Z,20.50
2023-07-24T04:31:11.233Z,20.50
2023-07-24T04:33:39.575Z,20.60
2023-07-24T04:36:07.922Z,20.60
2023-07-24T04:38:41.073Z,20.70
2023-07-24T04:41:09.670Z,20.80
2023-07-24T04:43:38.010Z,20.90
2023-07-24T04:46:06.354Z,20.90
2023-07-24T04:48:34.616Z,21.00
2023-07-24T04:51:02.924Z,21.00
2023-07-24T04:53:31.589Z,21.00
2023-07-24T04:56:01.440Z,21.00
2023-07-24T04:58:29.704Z,20.90
2023-07-24T05:00:58.121Z,20.90
2023-07-24T05:03:26.418Z,20.90
2023-07-24T05:05:57.108Z,21.00
2023-07-24T05:08:25.805Z,21.10
2023-07-24T05:10:57.456Z,21.10
2023-07-24T05:13:27.228Z,21.10
2023-07-24T05:15:55.561Z,21.30
2023-07-24T05:18:23.981Z,21.50
2023-07-24T05:20:53.423Z,21.70
2023-07-24T05:23:21.712Z,21.80
2023-07-24T05:25:50.012Z,21.90
2023-07-24T05:28:18.264Z,21.90
2023-07-24T05:30:47.902Z,21.80
2023-07-24T05:33:16.246Z,21.70
2023-07-24T05:35:44.602Z,21.70
2023-07-24T05:38:13.151Z,21.60
2023-07-24T05:40:41.529Z,21.60
2023-07-24T05:43:09.853Z,21.60
2023-07-24T05:45:38.203Z,21.60
2023-07-24T05:48:08.140Z,21.60
2023-07-24T05:50:36.456Z,21.60
2023-07-24T05:53:04.841Z,21.60
2023-07-24T05:55:33.137Z,21.60
2023-07-24T05:58:01.522Z,21.60
2023-07-24T06:00:30.019Z,21.50
2023-07-24T06:02:58.455Z,21.50
2023-07-24T06:05:28.179Z,21.50
2023-07-24T06:07:57.234Z,21.60
2023-07-24T06:10:25.581Z,21.60
2023-07-24T06:12:53.863Z,21.60
2023-07-24T06:15:22.154Z,21.80
2023-07-24T06:17:52.610Z,21.90
2023-07-24T06:20:22.956Z,22.00
2023-07-24T06:22:52.662Z,22.00
2023-07-24T06:25:21.053Z,21.90
2023-07-24T06:27:49.377Z,21.70
2023-07-24T06:30:17.749Z,21.70
2023-07-24T06:32:46.156Z,21.60
2023-07-24T06:35:14.585Z,21.60
2023-07-24T06:37:42.957Z,21.60
2023-07-24T06:40:13.315Z,21.70
2023-07-24T06:42:41.593Z,21.60
2023-07-24T06:45:11.052Z,21.70
2023-07-24T06:47:39.486Z,21.80
2023-07-24T06:50:09.384Z,21.80
2023-07-24T06:52:37.835Z,21.70
2023-07-24T06:55:07.030Z,21.40
2023-07-24T06:57:36.789Z,21.40
2023-07-24T07:00:05.775Z,21.50
2023-07-24T07:02:34.181Z,21.50
2023-07-24T07:05:06.133Z,21.50
2023-07-24T07:07:34.828Z,21.60
2023-07-24T07:10:03.451Z,21.50
2023-07-24T07:12:31.698Z,21.70
2023-07-24T07:15:01.463Z,21.90
2023-07-24T07:17:29.893Z,22.10
2023-07-24T07:19:58.783Z,22.30
2023-07-24T07:22:26.992Z,22.50
2023-07-24T07:24:55.339Z,22.80
2023-07-24T07:27:23.856Z,23.40
2023-07-24T07:29:52.113Z,23.80
2023-07-24T07:32:21.706Z,24.10
2023-07-24T07:34:49.981Z,24.20
2023-07-24T07:37:18.379Z,24.10
2023-07-24T07:39:46.841Z,24.70
2023-07-24T07:42:18.345Z,25.20
2023-07-24T07:44:47.791Z,25.20
2023-07-24T07:47:16.161Z,25.50
2023-07-24T07:49:45.885Z,25.60
2023-07-24T07:52:15.902Z,25.30
2023-07-24T07:54:47.704Z,25.30
2023-07-24T07:57:16.475Z,24.90
2023-07-24T07:59:44.740Z,24.90
2023-07-24T08:02:13.124Z,24.60
2023-07-24T08:04:41.330Z,24.40
2023-07-24T08:07:11.034Z,24.30
2023-07-24T08:09:40.092Z,24.40
2023-07-24T08:12:09.448Z,24.90
2023-07-24T08:14:37.811Z,25.40
2023-07-24T08:17:06.784Z,25.60
2023-07-24T08:19:35.249Z,25.90
2023-07-24T08:22:03.733Z,26.10
2023-07-24T08:24:36.354Z,26.00
2023-07-24T08:27:05.430Z,25.50
2023-07-24T08:29:34.516Z,25.20
2023-07-24T08:32:03.081Z,25.00
2023-07-24T08:34:31.589Z,24.80
2023-07-24T08:37:00.107Z,24.80
2023-07-24T08:39:28.480Z,24.90
2023-07-24T08:41:59.185Z,24.80
2023-07-24T08:44:32.286Z,24.80
2023-07-24T08:47:01.922Z,25.00
2023-07-24T08:49:32.345Z,25.20
2023-07-24T08:52:02.154Z,25.10
2023-07-24T08:54:32.585Z,25.30
2023-07-24T08:57:03.150Z,25.60
2023-07-24T08:59:31.948Z,25.90
2023-07-24T09:02:00.359Z,26.20
2023-07-24T09:04:28.782Z,26.40
2023-07-24T09:06:58.926Z,26.50
2023-07-24T09:09:32.532Z,26.70
2023-07-24T09:12:02.243Z,26.80
2023-07-24T09:14:32.876Z,26.70
2023-07-24T09:17:05.869Z,26.70
2023-07-24T09:19:34.371Z,26.50
2023-07-24T09:22:14.153Z,26.50
2023-07-24T09:24:52.526Z,26.60
2023-07-24T09:27:22.913Z,26.70
2023-07-24T09:29:51.314Z,27.10
2023-07-24T09:32:23.905Z,27.60
2023-07-24T09:34:55.357Z,27.40
2023-07-24T09:37:28.335Z,27.70
2023-07-24T09:39:57.052Z,27.70
2023-07-24T09:42:34.531Z,29.10
2023-07-24T09:45:09.136Z,30.10
2023-07-24T09:47:55.179Z,29.60
2023-07-24T09:50:25.304Z,29.50
2023-07-24T09:52:54.446Z,29.10
2023-07-24T09:55:30.424Z,28.70
2023-07-24T09:58:02.794Z,28.70
2023-07-24T10:00:33.369Z,28.70
2023-07-24T10:03:02.285Z,28.50
2023-07-24T10:05:31.773Z,28.80
2023-07-24T10:08:00.916Z,28.40
2023-07-24T10:10:31.417Z,28.50
2023-07-24T10:13:01.471Z,28.70
2023-07-24T10:15:30.873Z,29.00
2023-07-24T10:18:05.485Z,29.50
2023-07-24T10:20:37.617Z,29.80
2023-07-24T10:23:08.504Z,29.70
2023-07-24T10:25:38.892Z,29.50
2023-07-24T10:28:12.106Z,28.90
2023-07-24T10:30:40.872Z,28.40
2023-07-24T10:33:12.038Z,28.30
2023-07-24T10:35:46.877Z,27.80
2023-07-24T10:38:17.346Z,27.90
2023-07-24T10:40:47.262Z,27.80
2023-07-24T10:43:22.743Z,27.70
2023-07-24T10:45:52.628Z,27.60
2023-07-24T10:48:22.385Z,27.70
2023-07-24T10:50:54.706Z,28.10
2023-07-24T10:53:24.510Z,28.40
2023-07-24T10:55:53.802Z,28.50
2023-07-24T10:58:27.477Z,28.20
2023-07-24T11:00:57.138Z,28.00
2023-07-24T11:03:27.177Z,28.10
2023-07-24T11:05:56.576Z,27.70
2023-07-24T11:08:24.840Z,27.60
2023-07-24T11:10:54.761Z,27.70
2023-07-24T11:13:25.869Z,27.50
2023-07-24T11:15:55.657Z,27.70
2023-07-24T11:18:34.181Z,28.10
2023-07-24T11:21:15.025Z,28.50
2023-07-24T11:23:48.096Z,29.20
2023-07-24T11:26:16.787Z,29.60
2023-07-24T11:28:46.753Z,29.80
2023-07-24T11:31:16.393Z,30.10
2023-07-24T11:33:46.450Z,30.30
2023-07-24T11:36:15.287Z,30.30
2023-07-24T11:38:43.595Z,30.10
2023-07-24T11:41:12.161Z,29.70
2023-07-24T11:43:49.918Z,29.10
2023-07-24T11:46:26.468Z,28.70
2023-07-24T11:48:57.884Z,28.50
2023-07-24T11:51:30.381Z,28.50
2023-07-24T11:54:09.525Z,28.40
2023-07-24T11:56:38.066Z,28.60
2023-07-24T11:59:15.297Z,29.10
2023-07-24T12:01:43.832Z,29.50
2023-07-24T12:04:12.584Z,29.60
2023-07-24T12:06:41.223Z,29.00
2023-07-24T12:09:09.842Z,29.10
2023-07-24T12:11:45.488Z,29.30
2023-07-24T12:14:16.436Z,29.30
2023-07-24T12:16:45.009Z,29.60
2023-07-24T12:19:13.570Z,29.60
2023-07-24T12:21:41.921Z,29.70
2023-07-24T12:24:10.231Z,29.80
2023-07-24T12:26:38.496Z,29.80
2023-07-24T12:29:06.773Z,30.00
2023-07-24T12:31:37.095Z,29.80
2023-07-24T12:34:05.666Z,29.60
2023-07-24T12:36:33.958Z,29.60
2023-07-24T12:39:02.297Z,29.60
2023-07-24T12:41:31.026Z,29.60
2023-07-24T12:44:01.148Z,29.60
2023-07-24T12:46:29.730Z,29.50
2023-07-24T12:48:59.490Z,29.50
2023-07-24T12:51:27.908Z,29.40
2023-07-24T12:54:03.199Z,29.50
2023-07-24T12:56:35.798Z,29.20
2023-07-24T12:59:04.634Z,29.40
2023-07-24T13:01:33.162Z,29.50
2023-07-24T13:04:03.031Z,29.30
2023-07-24T13:06:31.715Z,29.10
2023-07-24T13:09:00.424Z,28.80
2023-07-24T13:11:29.672Z,28.80
2023-07-24T13:13:58.713Z,28.90
2023-07-24T13:16:27.150Z,29.00
2023-07-24T13:18:55.526Z,29.10
2023-07-24T13:21:25.440Z,29.10
2023-07-24T13:23:53.763Z,29.10
2023-07-24T13:26:22.017Z,29.10
2023-07-24T13:28:50.401Z,29.30
2023-07-24T13:31:19.842Z,29.60
2023-07-24T13:33:48.853Z,29.80
2023-07-24T13:36:17.276Z,29.60
2023-07-24T13:38:47.004Z,29.70
2023-07-24T13:41:15.310Z,29.70
2023-07-24T13:43:43.612Z,29.50
2023-07-24T13:46:12.026Z,29.60
2023-07-24T13:48:40.572Z,29.60
2023-07-24T13:51:08.951Z,29.50
2023-07-24T13:53:37.287Z,29.40
2023-07-24T13:56:07.717Z,29.20
2023-07-24T13:58:35.946Z,29.20
2023-07-24T14:01:04.314Z,29.50
2023-07-24T14:03:32.832Z,29.70
2023-07-24T14:06:01.328Z,29.80
2023-07-24T14:08:29.647Z,30.00
2023-07-24T14:10:58.061Z,30.10
2023-07-24T14:13:27.847Z,29.70
2023-07-24T14:15:56.279Z,29.60
2023-07-24T14:18:24.806Z,29.60
2023-07-24T14:20:55.720Z,29.40
2023-07-24T14:23:24.219Z,29.40
2023-07-24T14:25:52.603Z,29.40
2023-07-24T14:28:23.887Z,29.30
2023-07-24T14:30:53.533Z,29.20
2023-07-24T14:33:23.593Z,29.20
2023-07-24T14:35:52.032Z,29.20
2023-07-24T14:38:20.511Z,29.20
2023-07-24T14:40:48.891Z,29.20
2023-07-24T14:43:17.334Z,29.30
2023-07-24T14:45:45.818Z,29.50
2023-07-24T14:48:17.889Z,29.60
2023-07-24T14:50:46.168Z,29.70
2023-07-24T14:53:14.500Z,29.60
2023-07-24T14:55:42.899Z,29.60
2023-07-24T14:58:11.326Z,29.60
2023-07-24T15:00:39.606Z,29.40
2023-07-24T15:03:08.031Z,29.50
2023-07-24T15:05:37.857Z,29.40
2023-07-24T15:08:06.771Z,29.30
2023-07-24T15:10:35.165Z,29.40
2023-07-24T15:13:03.382Z,29.40
2023-07-24T15:15:31.746Z,29.50
2023-07-24T15:18:01.082Z,29.50
2023-07-24T15:20:29.608Z,29.50
2023-07-24T15:23:00.496Z,29.50
2023-07-24T15:25:28.859Z,29.50
2023-07-24T15:27:57.121Z,29.70
2023-07-24T15:30:25.628Z,29.60
2023-07-24T15:32:54.050Z,29.60
2023-07-24T15:35:22.730Z,29.80
2023-07-24T15:37:51.264Z,30.00
2023-07-24T15:40:21.068Z,30.10
2023-07-24T15:42:49.488Z,30.00
2023-07-24T15:45:17.901Z,30.10
2023-07-24T15:47:46.309Z,30.20
2023-07-24T15:50:14.920Z,30.20
2023-07-24T15:52:44.584Z,30.10
2023-07-24T15:55:13.121Z,29.90
2023-07-24T15:57:43.006Z,29.70
2023-07-24T16:00:12.638Z,29.70
2023-07-24T16:02:41.977Z,29.70
2023-07-24T16:05:19.413Z,29.70
2023-07-24T16:07:47.720Z,29.60
2023-07-24T16:10:17.843Z,29.70
2023-07-24T16:12:47.623Z,29.60
2023-07-24T16:15:16.656Z,29.60
2023-07-24T16:20:16.288Z,29.40
2023-07-24T16:22:44.593Z,29.20
2023-07-24T16:25:12.874Z,29.10
2023-07-24T16:27:41.346Z,29.00
2023-07-24T16:30:12.355Z,28.90
2023-07-24T16:32:49.378Z,28.90
2023-07-24T16:35:18.697Z,28.90
2023-07-24T16:37:48.905Z,28.80
2023-07-24T16:40:18.725Z,28.80
2023-07-24T16:42:47.087Z,28.70
2023-07-24T16:47:48.090Z,28.60
2023-07-24T16:50:17.001Z,28.60
2023-07-24T16:52:45.490Z,28.60
2023-07-24T16:55:13.845Z,28.50
2023-07-24T16:57:42.201Z,28.60
2023-07-24T17:00:11.735Z,28.50
2023-07-24T17:02:41.486Z,28.60
2023-07-24T17:05:10.443Z,28.60
2023-07-24T17:07:38.761Z,28.50
2023-07-24T17:10:08.855Z,28.40
2023-07-24T17:12:37.250Z,28.30
2023-07-24T17:15:06.163Z,28.10
2023-07-24T17:17:34.924Z,28.00
2023-07-24T17:20:05.625Z,27.80
2023-07-24T17:22:34.027Z,27.70
2023-07-24T17:25:02.421Z,27.60
2023-07-24T17:27:32.009Z,27.50
2023-07-24T17:30:00.317Z,27.30
2023-07-24T17:32:28.678Z,27.30
2023-07-24T17:34:56.953Z,27.20
2023-07-24T17:37:37.337Z,27.10
2023-07-24T17:40:07.706Z,27.00
2023-07-24T17:42:36.074Z,26.90
2023-07-24T17:45:04.745Z,26.70
2023-07-24T17:47:34.033Z,26.60
2023-07-24T17:50:07.835Z,26.40
2023-07-24T17:52:38.631Z,26.30
2023-07-24T17:55:07.477Z,26.10
2023-07-24T17:57:35.810Z,26.00
2023-07-24T18:00:04.616Z,25.90
2023-07-24T18:02:33.600Z,25.80
2023-07-24T18:05:02.038Z,25.70
2023-07-24T18:07:30.431Z,25.60
2023-07-24T18:10:00.289Z,25.60
2023-07-24T18:12:29.151Z,25.40
2023-07-24T18:14:57.522Z,25.30
2023-07-24T18:17:25.885Z,25.10
2023-07-24T18:19:54.403Z,25.10
2023-07-24T18:22:22.727Z,25.00
2023-07-24T18:24:51.030Z,24.90
2023-07-24T18:27:20.816Z,24.80
2023-07-24T18:29:49.224Z,24.80
2023-07-24T18:32:17.552Z,24.70
2023-07-24T18:34:45.902Z,24.60
2023-07-24T18:37:14.421Z,24.50
2023-07-24T18:39:42.840Z,24.40
2023-07-24T18:42:11.485Z,24.40
2023-07-24T18:44:41.290Z,24.40
2023-07-24T18:47:09.744Z,24.30
2023-07-24T18:49:38.358Z,24.10
2023-07-24T18:52:07.755Z,24.10
2023-07-24T18:54:36.071Z,24.00
2023-07-24T18:57:04.670Z,24.00
2023-07-24T18:59:36.172Z,23.90
2023-07-24T19:02:06.606Z,24.00
2023-07-24T19:04:35.281Z,24.00
2023-07-24T19:07:03.811Z,24.00
2023-07-24T19:09:32.248Z,24.00
2023-07-24T19:12:00.700Z,24.00
2023-07-24T19:14:29.075Z,23.90
2023-07-24T19:16:57.527Z,24.00
2023-07-24T19:19:27.507Z,24.20
2023-07-24T19:21:55.915Z,24.30
2023-07-24T19:24:26.417Z,24.40
2023-07-24T19:26:54.882Z,24.50
2023-07-24T19:29:23.291Z,24.60
2023-07-24T19:31:52.222Z,24.70
2023-07-24T19:34:20.681Z,24.80
2023-07-24T19:36:51.125Z,24.70
2023-07-24T19:39:19.558Z,24.70
2023-07-24T19:41:47.922Z,24.70
2023-07-24T19:44:16.268Z,24.60
2023-07-24T19:46:44.648Z,24.50
2023-07-24T19:49:13.012Z,24.40
2023-07-24T19:51:41.413Z,24.40
2023-07-24T19:54:11.076Z,24.30
2023-07-24T19:56:39.503Z,24.30
2023-07-24T19:59:07.826Z,24.20
2023-07-24T20:01:36.260Z,24.20
2023-07-24T20:04:04.805Z,24.10
2023-07-24T20:06:33.244Z,24.00
2023-07-24T20:09:02.159Z,23.80
2023-07-24T20:11:32.101Z,23.70
2023-07-24T20:14:00.793Z,23.60
2023-07-24T20:16:29.380Z,23.60
2023-07-24T20:18:57.725Z,23.70
2023-07-24T20:21:26.182Z,23.70
2023-07-24T20:23:54.593Z,23.70
2023-07-24T20:26:23.015Z,23.70
2023-07-24T20:28:52.804Z,23.60
2023-07-24T20:31:21.053Z,23.60
2023-07-24T20:33:49.331Z,23.60
2023-07-24T20:36:17.725Z,23.60
2023-07-24T20:38:46.226Z,23.70
2023-07-24T20:41:14.528Z,23.60
2023-07-24T20:43:42.885Z,23.60
2023-07-24T20:46:17.159Z,23.60
2023-07-24T20:48:46.145Z,23.70
2023-07-24T20:51:19.141Z,23.70
2023-07-24T20:53:47.455Z,23.70
2023-07-24T20:56:15.887Z,23.70
2023-07-24T20:58:44.352Z,23.70
2023-07-24T21:01:12.846Z,23.60
2023-07-24T21:03:42.640Z,23.60
2023-07-24T21:06:10.929Z,23.60
2023-07-24T21:08:39.209Z,23.60
2023-07-24T21:11:07.672Z,23.60
2023-07-24T21:13:35.973Z,23.60
2023-07-24T21:16:04.311Z,23.60
2023-07-24T21:18:32.689Z,23.50
2023-07-24T21:21:02.557Z,23.40
2023-07-24T21:23:31.243Z,23.40
2023-07-24T21:26:00.132Z,23.30
2023-07-24T21:28:28.437Z,23.30
2023-07-24T21:30:56.817Z,23.30
2023-07-24T21:33:25.136Z,23.20
2023-07-24T21:36:04.958Z,23.10
2023-07-24T21:38:34.106Z,23.10
2023-07-24T21:41:02.609Z,23.00
2023-07-24T21:43:30.901Z,22.90
2023-07-24T21:45:59.244Z,22.90
2023-07-24T21:48:27.559Z,22.90
2023-07-24T21:50:55.954Z,22.90
2023-07-24T21:53:25.625Z,22.80
2023-07-24T21:55:53.994Z,22.80
2023-07-24T21:58:22.367Z,22.80
2023-07-24T22:00:50.738Z,22.80
2023-07-24T22:03:19.173Z,22.70
2023-07-24T22:05:47.473Z,22.70
2023-07-24T22:08:15.906Z,22.70
2023-07-24T22:10:45.598Z,22.60
2023-07-24T22:13:14.090Z,22.60
2023-07-24T22:15:42.457Z,22.50
2023-07-24T22:18:11.000Z,22.50
2023-07-24T22:20:41.729Z,22.40
2023-07-24T22:23:11.291Z,22.40
2023-07-24T22:25:40.742Z,22.40
2023-07-24T22:28:10.498Z,22.30
2023-07-24T22:30:38.771Z,22.30
2023-07-24T22:33:07.078Z,22.30
2023-07-24T22:35:35.425Z,22.20
2023-07-24T22:38:03.943Z,22.30
2023-07-24T22:40:32.853Z,22.20
2023-07-24T22:43:01.194Z,22.20
2023-07-24T22:45:31.697Z,22.20
2023-07-24T22:48:00.203Z,22.10
2023-07-24T22:50:28.592Z,22.10
2023-07-24T22:52:57.058Z,22.10
2023-07-24T22:55:25.416Z,22.10
2023-07-24T22:57:55.929Z,22.10
2023-07-24T23:00:26.029Z,22.10
2023-07-24T23:02:55.725Z,22.00
2023-07-24T23:05:24.156Z,21.90
2023-07-24T23:07:56.301Z,22.00
2023-07-24T23:10:24.800Z,22.00
2023-07-24T23:12:53.141Z,21.80
2023-07-24T23:15:21.418Z,21.90
2023-07-24T23:17:49.822Z,21.80
2023-07-24T23:20:19.708Z,21.80
2023-07-24T23:22:48.058Z,21.80
2023-07-24T23:25:16.355Z,21.70
2023-07-24T23:27:44.682Z,21.70
2023-07-24T23:30:13.271Z,21.70
2023-07-24T23:32:41.624Z,21.60
2023-07-24T23:35:10.476Z,21.60
2023-07-24T23:37:40.634Z,21.50
2023-07-24T23:40:10.058Z,21.50
2023-07-24T23:42:38.288Z,21.50
2023-07-24T23:45:07.483Z,21.50
2023-07-24T23:47:37.202Z,21.50
2023-07-24T23:50:06.100Z,21.40
2023-07-24T23:52:34.522Z,21.40
2023-07-24T23:55:04.434Z,21.40
2023-07-24T23:57:32.932Z,21.40
